Time;durP1;ratioP1;P1;durP2;ratioP2;P2;SDS_P1;SDS_P2;PMS_P1;PMS_P2;Temp;Humidity;BMP_temperature;BMP_pressure;BME280_temperature;BME280_humidity;BME280_pressure;Samples;Min_cycle;Max_cycle;Signal;HPM_P1;HPM_P2
2022/01/16 00:04:30;;;;;;;32.60;10.27;;;-0.90;99.90;;;;;;4940150;28;20035;-68
2022/01/16 00:07:01;;;;;;;28.95;9.68;;;-0.90;99.90;;;;;;4951043;28;20082;-67
2022/01/16 00:09:27;;;;;;;31.52;9.93;;;-0.90;99.90;;;;;;4951891;29;20121;-66
2022/01/16 00:11:56;;;;;;;29.95;10.63;;;-0.90;99.90;;;;;;4953311;28;20658;-66
2022/01/16 00:14:21;;;;;;;27.23;10.25;;;-1.00;99.90;;;;;;4952303;28;20063;-67
2022/01/16 00:16:47;;;;;;;30.88;9.60;;;-1.00;99.90;;;;;;4953872;28;20606;-66
2022/01/16 00:19:13;;;;;;;29.58;9.52;;;-1.00;99.90;;;;;;4953978;28;20042;-68
2022/01/16 00:21:41;;;;;;;32.38;9.88;;;-1.00;99.90;;;;;;4951873;28;20672;-67
2022/01/16 00:24:08;;;;;;;33.60;10.40;;;-1.00;99.90;;;;;;4953043;28;20023;-68
2022/01/16 00:26:35;;;;;;;26.15;9.80;;;-1.00;99.90;;;;;;4950178;28;20050;-67
2022/01/16 00:29:02;;;;;;;32.15;9.93;;;-1.00;99.90;;;;;;4935594;28;20040;-67
2022/01/16 00:31:28;;;;;;;29.67;9.77;;;-1.00;99.90;;;;;;4953524;28;20031;-67
2022/01/16 00:33:54;;;;;;;30.10;8.93;;;-1.00;99.90;;;;;;4951937;28;20142;-67
2022/01/16 00:36:21;;;;;;;26.05;9.13;;;-1.10;99.90;;;;;;4952422;28;20047;-67
2022/01/16 00:38:48;;;;;;;30.52;10.05;;;-1.10;99.90;;;;;;4951667;29;20039;-69
2022/01/16 00:41:15;;;;;;;26.75;8.00;;;-1.10;99.90;;;;;;4953115;28;20035;-67
2022/01/16 00:43:41;;;;;;;28.92;8.82;;;-1.10;99.90;;;;;;4951997;28;20199;-67
2022/01/16 00:46:07;;;;;;;26.88;8.45;;;-1.20;99.90;;;;;;4953510;28;20498;-68
2022/01/16 00:48:33;;;;;;;32.60;9.20;;;-1.20;99.90;;;;;;4952314;28;20039;-68
2022/01/16 00:50:59;;;;;;;26.30;9.43;;;-1.20;99.90;;;;;;4953971;28;20035;-67
2022/01/16 00:53:24;;;;;;;34.85;10.27;;;-1.20;99.90;;;;;;4951217;28;20444;-67
2022/01/16 00:55:50;;;;;;;32.47;10.23;;;-1.20;99.90;;;;;;4951578;28;20050;-68
2022/01/16 00:58:16;;;;;;;31.33;10.18;;;-1.20;99.90;;;;;;4952850;28;20031;-66
2022/01/16 01:00:42;;;;;;;29.48;9.43;;;-1.20;99.90;;;;;;4952052;28;20035;-68
2022/01/16 01:03:07;;;;;;;30.35;9.00;;;-1.30;99.90;;;;;;4952690;28;20431;-67
2022/01/16 01:05:35;;;;;;;26.85;8.50;;;-1.30;99.90;;;;;;4950374;28;20062;-67
2022/01/16 01:08:02;;;;;;;35.13;11.20;;;-1.30;99.90;;;;;;4964957;28;20430;-68
2022/01/16 01:10:34;;;;;;;33.78;11.20;;;-1.30;99.90;;;;;;4954737;28;20188;-68
2022/01/16 01:16:14;;;;;;;39.65;11.30;;;-1.40;99.90;;;;;;4909803;29;20044;-68
2022/01/16 01:18:41;;;;;;;72.25;14.27;;;-1.40;99.90;;;;;;4944582;28;20633;-68
2022/01/16 01:21:16;;;;;;;50.03;14.38;;;-1.40;99.90;;;;;;4952381;29;20027;-68
2022/01/16 01:23:41;;;;;;;41.03;12.38;;;-1.40;99.90;;;;;;4951735;28;20249;-67
2022/01/16 01:26:07;;;;;;;44.83;13.35;;;-1.50;99.90;;;;;;4953099;28;20490;-67
2022/01/16 01:28:33;;;;;;;45.30;13.70;;;-1.60;99.90;;;;;;4949613;29;20404;-67
2022/01/16 01:30:58;;;;;;;49.38;13.48;;;-1.70;99.90;;;;;;4948762;29;20067;-67
2022/01/16 01:33:25;;;;;;;40.13;12.45;;;-1.80;99.90;;;;;;4951576;29;20424;-67
2022/01/16 01:35:51;;;;;;;40.88;13.20;;;-1.80;99.90;;;;;;4952064;29;20035;-68
2022/01/16 01:38:18;;;;;;;42.25;13.13;;;-1.90;99.90;;;;;;4951859;29;20472;-68
2022/01/16 01:40:47;;;;;;;36.30;11.65;;;-1.90;99.90;;;;;;4950058;29;20027;-68
2022/01/16 01:51:11;;;;;;;33.97;11.63;;;-1.80;99.90;;;;;;4951918;29;20042;-68
2022/01/16 01:53:38;;;;;;;36.30;11.65;;;-1.80;99.90;;;;;;4951107;28;20038;-67
2022/01/16 01:56:06;;;;;;;39.45;11.68;;;-1.80;99.90;;;;;;4952218;28;20074;-68
2022/01/16 01:58:32;;;;;;;39.70;11.10;;;-1.80;99.90;;;;;;4950482;28;20114;-68
2022/01/16 02:00:57;;;;;;;36.75;12.13;;;-1.80;99.90;;;;;;4951659;28;20767;-67
2022/01/16 02:03:32;;;;;;;35.72;11.82;;;-1.80;99.90;;;;;;4951457;28;20032;-67
2022/01/16 02:05:58;;;;;;;28.98;10.75;;;-1.90;99.90;;;;;;4950162;29;20050;-67
2022/01/16 02:08:24;;;;;;;35.45;11.15;;;-1.90;99.90;;;;;;4950583;29;20039;-67
2022/01/16 02:10:49;;;;;;;26.02;10.05;;;-1.90;99.90;;;;;;4951392;28;20034;-67
2022/01/16 02:13:29;;;;;;;24.02;9.52;;;-1.90;99.90;;;;;;4950412;29;20432;-67
2022/01/16 02:34:45;;;;;;;46.45;12.15;;;-2.10;99.90;;;;;;4929717;28;20047;-67
2022/01/16 02:37:14;;;;;;;33.72;11.73;;;-2.10;99.90;;;;;;4950403;29;20448;-67
2022/01/16 02:39:49;;;;;;;38.60;12.30;;;-2.10;99.90;;;;;;4950716;28;20051;-68
2022/01/16 02:42:16;;;;;;;32.78;11.63;;;-2.20;99.90;;;;;;4947871;29;20056;-67
2022/01/16 02:47:11;;;;;;;34.92;11.70;;;-2.30;99.90;;;;;;4950625;29;20042;-67
2022/01/16 02:49:40;;;;;;;33.00;11.02;;;-2.30;99.90;;;;;;4949065;29;20045;-67
2022/01/16 02:52:09;;;;;;;39.25;12.52;;;-2.20;99.90;;;;;;4950459;29;20051;-67
2022/01/16 02:54:38;;;;;;;37.17;11.63;;;-2.20;99.90;;;;;;4949100;29;20045;-67
2022/01/16 02:57:10;;;;;;;43.63;12.25;;;-2.20;99.90;;;;;;4951347;28;20102;-68
2022/01/16 02:59:39;;;;;;;49.47;13.02;;;-2.10;99.90;;;;;;4949782;29;20368;-68
2022/01/16 03:02:05;;;;;;;49.40;13.85;;;-2.10;99.90;;;;;;4950410;28;20396;-68
2022/01/16 03:04:32;;;;;;;78.00;13.77;;;-2.10;99.90;;;;;;4950334;28;20039;-68
2022/01/16 03:07:03;;;;;;;42.90;13.35;;;-2.10;99.90;;;;;;4950125;28;20148;-68
2022/01/16 03:09:45;;;;;;;77.22;13.98;;;-2.10;99.90;;;;;;4950667;28;20034;-68
2022/01/16 03:12:10;;;;;;;105.28;15.68;;;-2.00;99.90;;;;;;4950667;28;20031;-66
2022/01/16 03:14:36;;;;;;;44.78;12.80;;;-2.10;99.90;;;;;;4949346;29;20152;-67
2022/01/16 03:17:02;;;;;;;65.45;13.80;;;-2.10;99.90;;;;;;4949940;28;20046;-68
2022/01/16 03:22:13;;;;;;;44.13;13.30;;;-2.10;99.90;;;;;;4945249;29;20033;-67
2022/01/16 03:24:41;;;;;;;59.58;12.90;;;-2.10;99.90;;;;;;4949803;28;20047;-68
2022/01/16 03:27:10;;;;;;;106.60;16.90;;;-2.10;99.90;;;;;;4948582;29;21167;-67
2022/01/16 03:29:36;;;;;;;179.70;18.42;;;-2.20;99.90;;;;;;4949754;29;20059;-67
2022/01/16 03:32:04;;;;;;;53.38;13.05;;;-2.30;99.90;;;;;;4946629;28;20114;-68
2022/01/16 03:34:30;;;;;;;44.15;12.48;;;-2.30;99.90;;;;;;4950261;29;20027;-68
2022/01/16 03:36:56;;;;;;;43.67;13.75;;;-2.20;99.90;;;;;;4948139;29;20050;-67
2022/01/16 03:39:22;;;;;;;39.95;12.30;;;-2.20;99.90;;;;;;4950098;29;20440;-68
2022/01/16 03:41:48;;;;;;;77.10;14.68;;;-2.10;99.90;;;;;;4947212;29;20082;-68
2022/01/16 03:44:13;;;;;;;58.45;14.10;;;-2.10;99.90;;;;;;4948022;29;20696;-68
2022/01/16 03:46:42;;;;;;;48.75;12.52;;;-2.00;99.90;;;;;;4948415;28;20102;-64
2022/01/16 03:49:12;;;;;;;46.20;12.75;;;-2.00;99.90;;;;;;4950063;28;20036;-65
2022/01/16 03:51:39;;;;;;;90.80;15.10;;;-2.00;99.90;;;;;;4949297;28;20114;-65
2022/01/16 03:54:08;;;;;;;55.08;13.07;;;-2.00;99.90;;;;;;4947930;28;20862;-64
2022/01/16 03:56:34;;;;;;;40.33;12.48;;;-2.00;99.90;;;;;;4948617;28;20098;-64
2022/01/16 03:58:59;;;;;;;61.30;14.30;;;-1.90;99.90;;;;;;4948638;29;20533;-64
2022/01/16 04:01:26;;;;;;;59.80;13.73;;;-1.90;99.90;;;;;;4948248;28;20046;-64
2022/01/16 04:03:53;;;;;;;54.13;12.77;;;-1.90;99.90;;;;;;4948612;29;20050;-63
2022/01/16 04:06:20;;;;;;;100.47;15.32;;;-1.90;99.90;;;;;;4949562;28;20517;-64
2022/01/16 04:08:49;;;;;;;111.00;15.93;;;-1.90;99.90;;;;;;4948259;28;20031;-64
2022/01/16 04:11:15;;;;;;;146.38;17.67;;;-1.90;99.90;;;;;;4950519;28;20459;-64
2022/01/16 04:16:37;;;;;;;207.13;21.83;;;-2.10;99.90;;;;;;4932167;28;20047;-64
2022/01/16 04:19:04;;;;;;;97.95;15.73;;;-2.30;99.90;;;;;;4950065;28;20043;-64
2022/01/16 04:21:30;;;;;;;154.30;17.35;;;-2.30;99.90;;;;;;4950118;28;20031;-64
2022/01/16 04:23:56;;;;;;;122.57;17.50;;;-2.30;99.90;;;;;;4949244;28;20030;-65
2022/01/16 04:26:25;;;;;;;140.93;16.98;;;-2.30;99.90;;;;;;4949611;28;20035;-64
2022/01/16 04:28:51;;;;;;;124.50;16.40;;;-2.40;99.90;;;;;;4949514;28;20113;-64
2022/01/16 04:31:17;;;;;;;164.02;17.60;;;-2.40;99.90;;;;;;4949480;28;20034;-64
2022/01/16 04:33:44;;;;;;;199.13;19.73;;;-2.40;99.90;;;;;;4948648;28;20099;-63
2022/01/16 04:36:11;;;;;;;149.55;20.98;;;-2.40;99.90;;;;;;4949926;28;20118;-63
2022/01/16 04:38:41;;;;;;;207.60;20.15;;;-2.40;99.90;;;;;;4949020;28;20047;-64
2022/01/16 04:43:52;;;;;;;107.63;15.98;;;-2.40;99.90;;;;;;4949135;28;20531;-63
2022/01/16 04:46:23;;;;;;;194.30;18.75;;;-2.40;99.90;;;;;;4949317;28;20044;-64
2022/01/16 04:48:50;;;;;;;107.03;16.08;;;-2.40;99.90;;;;;;4951292;28;20030;-64
2022/01/16 04:51:17;;;;;;;160.05;18.67;;;-2.40;99.90;;;;;;4953433;28;20484;-64
2022/01/16 04:53:43;;;;;;;240.88;21.85;;;-2.40;99.90;;;;;;4949686;28;20062;-64
2022/01/16 04:56:10;;;;;;;135.10;18.35;;;-2.30;99.90;;;;;;4953033;28;20035;-64
2022/01/16 04:58:36;;;;;;;143.48;18.23;;;-2.30;99.90;;;;;;4952304;28;20551;-64
2022/01/16 05:01:03;;;;;;;72.88;15.38;;;-2.30;99.90;;;;;;4952886;28;20106;-64
2022/01/16 05:03:30;;;;;;;120.65;16.60;;;-2.30;99.90;;;;;;4952998;28;20067;-63
2022/01/16 05:05:57;;;;;;;58.22;14.38;;;-2.20;99.90;;;;;;4949191;28;20616;-63
2022/01/16 05:08:23;;;;;;;143.30;18.70;;;-2.20;99.90;;;;;;4952556;28;20110;-64
2022/01/16 05:10:53;;;;;;;67.75;14.95;;;-2.20;99.90;;;;;;4952037;28;20031;-64
2022/01/16 05:18:42;;;;;;;49.35;14.00;;;-2.00;99.90;;;;;;4951406;28;20118;-64
2022/01/16 05:21:08;;;;;;;57.55;15.38;;;-2.00;99.90;;;;;;4952670;28;20117;-64
2022/01/16 05:23:34;;;;;;;81.88;15.63;;;-2.00;99.90;;;;;;4952979;28;20039;-64
2022/01/16 05:26:01;;;;;;;51.67;15.18;;;-2.00;99.90;;;;;;4950260;28;20062;-64
2022/01/16 05:28:27;;;;;;;52.00;14.52;;;-1.90;99.90;;;;;;4952862;28;20122;-63
2022/01/16 05:30:53;;;;;;;83.50;17.02;;;-1.90;99.90;;;;;;4951860;28;20035;-63
2022/01/16 05:33:20;;;;;;;97.93;16.70;;;-1.80;99.90;;;;;;4952258;28;20024;-63
2022/01/16 05:35:46;;;;;;;60.20;15.85;;;-1.90;99.90;;;;;;4951942;28;20428;-63
2022/01/16 05:38:12;;;;;;;54.22;14.80;;;-1.90;99.90;;;;;;4951985;28;20046;-63
2022/01/16 05:40:38;;;;;;;65.57;16.90;;;-1.80;99.90;;;;;;4950502;28;20055;-64
2022/01/16 05:43:04;;;;;;;117.05;18.63;;;-1.80;99.90;;;;;;4951369;28;20069;-64
2022/01/16 05:45:30;;;;;;;95.80;16.75;;;-1.70;99.90;;;;;;4952425;28;20035;-63
2022/01/16 05:47:56;;;;;;;80.25;16.50;;;-1.70;99.90;;;;;;4951168;28;20046;-63
2022/01/16 05:50:23;;;;;;;102.45;18.90;;;-1.80;99.90;;;;;;4951860;28;20039;-64
2022/01/16 05:52:50;;;;;;;127.22;19.05;;;-1.80;99.90;;;;;;4950056;28;20039;-64
2022/01/16 05:55:16;;;;;;;97.35;17.70;;;-1.90;99.90;;;;;;4951802;28;20058;-63
2022/01/16 05:57:42;;;;;;;157.27;20.63;;;-1.90;99.90;;;;;;4951105;28;20042;-64
2022/01/16 06:00:10;;;;;;;82.25;17.20;;;-2.00;99.90;;;;;;4951403;28;20042;-63
2022/01/16 06:02:36;;;;;;;135.57;20.23;;;-2.00;99.90;;;;;;4951742;28;20035;-64
2022/01/16 06:05:03;;;;;;;67.30;16.40;;;-2.00;99.90;;;;;;4950559;28;20474;-63
2022/01/16 06:07:28;;;;;;;73.32;16.90;;;-1.90;99.90;;;;;;4949869;28;20051;-64
2022/01/16 06:09:54;;;;;;;70.85;17.33;;;-1.90;99.90;;;;;;4951123;28;20047;-64
2022/01/16 06:12:20;;;;;;;70.22;18.15;;;-1.90;99.90;;;;;;4950735;28;20170;-64
2022/01/16 06:14:47;;;;;;;68.18;18.33;;;-1.90;99.90;;;;;;4949567;28;20042;-64
2022/01/16 06:17:13;;;;;;;90.68;19.52;;;-1.90;99.90;;;;;;4951386;28;20038;-63
2022/01/16 06:19:38;;;;;;;65.95;17.75;;;-1.90;99.90;;;;;;4949015;29;20027;-64
2022/01/16 06:22:04;;;;;;;76.88;19.27;;;-1.90;99.90;;;;;;4951371;28;20381;-64
2022/01/16 06:24:31;;;;;;;74.40;17.38;;;-1.90;99.90;;;;;;4952576;28;20106;-64
2022/01/16 06:26:56;;;;;;;63.60;17.40;;;-1.90;99.90;;;;;;4950423;28;20043;-64
2022/01/16 06:29:23;;;;;;;70.00;18.05;;;-1.90;99.90;;;;;;4950429;28;20042;-63
2022/01/16 06:31:49;;;;;;;64.22;17.38;;;-2.00;99.90;;;;;;4949497;28;20078;-62
2022/01/16 06:34:14;;;;;;;74.85;17.70;;;-2.00;99.90;;;;;;4950805;28;20031;-64
2022/01/16 06:36:40;;;;;;;61.35;17.75;;;-2.00;99.90;;;;;;4950451;29;20058;-64
2022/01/16 06:39:08;;;;;;;118.43;20.85;;;-2.00;99.90;;;;;;4950864;28;20475;-64
2022/01/16 06:41:35;;;;;;;122.13;19.42;;;-2.10;99.90;;;;;;4949790;28;20472;-64
2022/01/16 06:44:01;;;;;;;304.55;28.15;;;-2.10;99.90;;;;;;4947064;28;20118;-63
2022/01/16 06:46:27;;;;;;;118.70;17.38;;;-2.10;99.90;;;;;;4955231;28;20042;-64
2022/01/16 06:48:53;;;;;;;56.65;14.65;;;-2.30;99.90;;;;;;4954563;28;20035;-64
2022/01/16 06:51:20;;;;;;;78.30;15.77;;;-2.30;99.90;;;;;;4950418;28;20110;-64
2022/01/16 06:53:50;;;;;;;56.67;15.23;;;-2.40;99.90;;;;;;4949067;28;20039;-64
2022/01/16 06:56:17;;;;;;;58.10;14.15;;;-2.40;99.90;;;;;;4950206;28;20480;-64
2022/01/16 06:58:43;;;;;;;51.45;14.55;;;-2.40;99.90;;;;;;4947785;28;20065;-64
2022/01/16 07:01:10;;;;;;;67.95;16.25;;;-2.40;99.90;;;;;;4950380;28;20050;-64
2022/01/16 07:03:36;;;;;;;92.05;17.73;;;-2.40;99.90;;;;;;4957659;28;20069;-64
2022/01/16 07:06:03;;;;;;;57.42;15.10;;;-2.40;99.90;;;;;;4948416;28;20038;-64
2022/01/16 07:08:29;;;;;;;134.70;21.13;;;-2.40;99.90;;;;;;4949290;28;20126;-63
2022/01/16 07:10:56;;;;;;;209.75;23.75;;;-2.40;99.90;;;;;;4947984;29;20102;-64
2022/01/16 07:13:23;;;;;;;244.07;24.95;;;-2.30;99.90;;;;;;4949725;28;20039;-64
2022/01/16 07:15:50;;;;;;;153.65;21.40;;;-2.40;99.90;;;;;;4946803;28;20035;-64
2022/01/16 07:18:16;;;;;;;110.47;16.70;;;-2.40;99.90;;;;;;4949807;28;20046;-63
2022/01/16 07:20:46;;;;;;;174.80;20.65;;;-2.40;99.90;;;;;;4948973;28;20392;-63
2022/01/16 07:23:13;;;;;;;379.80;30.03;;;-2.50;99.90;;;;;;4948388;29;20388;-63
2022/01/16 07:25:40;;;;;;;136.90;19.35;;;-2.60;99.90;;;;;;4952045;28;20275;-63
2022/01/16 07:28:06;;;;;;;129.50;17.17;;;-2.60;99.90;;;;;;4948847;28;20039;-64
2022/01/16 07:30:33;;;;;;;245.38;23.77;;;-2.60;99.90;;;;;;4951395;28;20041;-64
2022/01/16 07:32:59;;;;;;;321.00;27.08;;;-2.60;99.90;;;;;;4949629;28;20054;-64
2022/01/16 07:35:24;;;;;;;229.88;24.08;;;-2.60;99.90;;;;;;4947505;29;20483;-64
2022/01/16 07:37:51;;;;;;;166.25;20.73;;;-2.70;99.90;;;;;;4949473;29;20043;-64
2022/01/16 07:40:20;;;;;;;119.88;18.85;;;-2.70;99.90;;;;;;4948081;28;20050;-64
2022/01/16 07:42:46;;;;;;;154.23;20.48;;;-2.70;99.90;;;;;;4948354;28;20033;-64
2022/01/16 07:45:12;;;;;;;389.77;32.03;;;-2.70;99.90;;;;;;4948970;28;20035;-64
2022/01/16 07:47:38;;;;;;;288.05;28.00;;;-2.60;99.90;;;;;;4947491;28;20078;-64
2022/01/16 07:50:05;;;;;;;296.95;28.60;;;-2.60;99.90;;;;;;4949292;29;20503;-64
2022/01/16 07:52:30;;;;;;;175.80;22.45;;;-2.50;99.90;;;;;;4949923;28;20122;-64
2022/01/16 07:54:56;;;;;;;233.00;25.55;;;-2.50;99.90;;;;;;4948230;28;20436;-64
2022/01/16 07:57:22;;;;;;;321.08;30.92;;;-2.40;99.90;;;;;;4948998;29;20035;-64
2022/01/16 07:59:47;;;;;;;280.17;27.38;;;-2.40;99.90;;;;;;4949308;29;20035;-64
2022/01/16 08:02:13;;;;;;;421.55;35.25;;;-2.50;99.90;;;;;;4947649;29;20035;-64
2022/01/16 08:04:38;;;;;;;315.77;28.88;;;-2.40;99.90;;;;;;4949555;28;20486;-64
2022/01/16 08:07:07;;;;;;;491.10;39.40;;;-2.40;99.90;;;;;;4948228;28;20134;-64
2022/01/16 08:09:32;;;;;;;297.38;29.08;;;-2.40;99.90;;;;;;4948352;28;20127;-64
2022/01/16 08:11:59;;;;;;;355.23;31.83;;;-2.30;99.90;;;;;;4950421;28;20102;-64
2022/01/16 08:14:25;;;;;;;152.23;22.30;;;-2.30;99.90;;;;;;4949347;29;21930;-64
2022/01/16 08:16:51;;;;;;;178.77;23.40;;;-2.30;99.90;;;;;;4947517;29;20115;-64
2022/01/16 08:19:16;;;;;;;325.95;29.52;;;-2.30;99.90;;;;;;4948660;28;20424;-64
2022/01/16 08:21:42;;;;;;;279.42;29.10;;;-2.30;99.90;;;;;;4948826;29;20436;-64
2022/01/16 08:24:07;;;;;;;223.00;26.42;;;-2.30;99.90;;;;;;4947016;28;20823;-64
2022/01/16 08:26:35;;;;;;;175.18;23.20;;;-2.20;99.90;;;;;;4950515;28;20106;-64
2022/01/16 08:29:01;;;;;;;125.53;23.13;;;-2.30;99.90;;;;;;4948776;28;20151;-64
2022/01/16 08:31:26;;;;;;;142.32;22.55;;;-2.20;99.90;;;;;;4950913;28;20036;-64
2022/01/16 08:33:52;;;;;;;159.00;25.20;;;-2.20;99.90;;;;;;4951050;29;20031;-64
2022/01/16 08:36:18;;;;;;;130.75;23.08;;;-2.10;99.90;;;;;;4951766;28;20043;-64
2022/01/16 08:38:44;;;;;;;187.60;25.60;;;-2.10;99.90;;;;;;4951616;29;20547;-64
2022/01/16 08:41:10;;;;;;;105.70;22.42;;;-2.00;99.90;;;;;;4951633;28;20031;-64
2022/01/16 08:43:35;;;;;;;157.57;24.23;;;-2.00;99.90;;;;;;4960084;28;20488;-64
2022/01/16 08:46:01;;;;;;;100.00;22.08;;;-2.00;99.90;;;;;;4950867;28;20031;-64
2022/01/16 08:48:28;;;;;;;105.93;23.15;;;-1.90;99.90;;;;;;4951972;29;20038;-64
2022/01/16 08:50:54;;;;;;;86.35;21.95;;;-1.80;99.90;;;;;;4950852;28;20058;-64
2022/01/16 08:53:20;;;;;;;85.85;23.48;;;-1.80;99.90;;;;;;4953467;29;20097;-63
2022/01/16 08:55:46;;;;;;;103.82;24.52;;;-1.70;99.90;;;;;;4952116;28;20472;-63
2022/01/16 08:58:12;;;;;;;94.90;24.73;;;-1.60;99.90;;;;;;4951408;28;20557;-63
2022/01/16 09:00:38;;;;;;;78.68;22.00;;;-1.50;99.90;;;;;;4951147;29;20374;-63
2022/01/16 09:03:03;;;;;;;80.82;23.23;;;-1.40;99.90;;;;;;4951702;28;20042;-64
2022/01/16 09:05:29;;;;;;;82.28;22.63;;;-1.40;99.90;;;;;;4952723;29;20581;-63
2022/01/16 09:07:55;;;;;;;86.88;24.05;;;-1.40;99.90;;;;;;4948338;29;20063;-63
2022/01/16 09:10:22;;;;;;;80.90;21.63;;;-1.40;99.90;;;;;;4952353;28;20034;-62
2022/01/16 09:12:48;;;;;;;91.07;22.70;;;-1.30;99.90;;;;;;4952090;28;20027;-64
2022/01/16 09:15:14;;;;;;;83.45;22.77;;;-1.30;99.90;;;;;;4951521;28;20035;-63
2022/01/16 09:17:40;;;;;;;84.78;23.33;;;-1.20;99.90;;;;;;4944373;28;20047;-63
2022/01/16 09:20:08;;;;;;;77.32;22.13;;;-1.30;99.90;;;;;;4951268;28;20027;-63
2022/01/16 09:22:36;;;;;;;77.65;20.85;;;-1.20;99.90;;;;;;4950680;29;20046;-64
2022/01/16 09:25:06;;;;;;;75.78;22.75;;;-1.20;99.90;;;;;;4951272;28;20027;-64
2022/01/16 09:27:33;;;;;;;82.07;21.95;;;-1.20;99.90;;;;;;4950125;29;20088;-64
2022/01/16 09:29:59;;;;;;;86.18;22.70;;;-1.20;99.90;;;;;;4950909;28;20035;-64
2022/01/16 09:32:25;;;;;;;87.43;23.15;;;-1.20;99.90;;;;;;4952383;28;20078;-64
2022/01/16 09:34:51;;;;;;;86.43;22.75;;;-1.20;99.90;;;;;;4951540;28;20027;-64
2022/01/16 09:37:16;;;;;;;87.90;24.55;;;-1.20;99.90;;;;;;4951933;28;20039;-64
2022/01/16 09:39:42;;;;;;;73.55;20.88;;;-1.20;99.90;;;;;;4951448;28;20078;-64
2022/01/16 09:42:08;;;;;;;90.65;23.05;;;-1.20;99.90;;;;;;4951660;29;20445;-64
2022/01/16 09:44:37;;;;;;;82.13;23.40;;;-1.20;99.90;;;;;;4951735;28;20031;-64
2022/01/16 09:47:03;;;;;;;84.90;24.42;;;-1.20;99.90;;;;;;4949875;28;20098;-64
2022/01/16 09:49:29;;;;;;;91.90;25.20;;;-1.20;99.90;;;;;;4950616;28;20078;-64
2022/01/16 09:51:55;;;;;;;101.90;24.85;;;-1.10;99.90;;;;;;4950902;28;20062;-64
2022/01/16 09:54:28;;;;;;;86.85;23.77;;;-1.20;99.90;;;;;;4951975;28;20062;-64
2022/01/16 09:56:57;;;;;;;92.10;25.23;;;-1.10;99.90;;;;;;4951327;28;20542;-64
2022/01/16 09:59:25;;;;;;;89.90;25.20;;;-1.10;99.90;;;;;;4949205;29;20043;-64
2022/01/16 10:01:54;;;;;;;89.38;25.17;;;-1.10;99.90;;;;;;4951516;28;20036;-64
2022/01/16 10:04:46;;;;;;;105.30;26.75;;;-1.00;99.90;;;;;;4951863;28;20042;-64
2022/01/16 10:07:23;;;;;;;93.25;24.63;;;-0.90;99.90;;;;;;4948628;28;20527;-63
2022/01/16 10:10:12;;;;;;;110.68;26.15;;;-0.80;99.90;;;;;;4955689;28;20113;-64
2022/01/16 10:12:46;;;;;;;85.35;24.27;;;-0.70;99.90;;;;;;4945749;29;20035;-63
2022/01/16 10:15:17;;;;;;;81.15;24.00;;;-0.90;99.90;;;;;;4950581;28;20222;-64
2022/01/16 10:17:45;;;;;;;80.57;24.05;;;-0.90;99.90;;;;;;4951142;28;20497;-64
2022/01/16 10:20:11;;;;;;;83.25;23.50;;;-0.90;99.90;;;;;;4950606;28;20462;-64
2022/01/16 10:22:44;;;;;;;77.20;23.10;;;-0.90;99.90;;;;;;4951458;28;20130;-64
2022/01/16 10:25:11;;;;;;;86.57;23.30;;;-1.00;99.90;;;;;;4949980;28;20081;-64
2022/01/16 10:27:42;;;;;;;83.85;25.83;;;-1.00;99.90;;;;;;4950625;28;20236;-65
2022/01/16 10:30:12;;;;;;;83.93;23.92;;;-1.00;99.90;;;;;;4949539;28;20035;-63
2022/01/16 10:32:43;;;;;;;63.38;18.55;;;-1.00;99.90;;;;;;4950225;28;20030;-65
2022/01/16 10:35:25;;;;;;;82.97;22.02;;;-1.00;99.90;;;;;;4951431;28;20037;-64
2022/01/16 10:37:53;;;;;;;85.65;24.08;;;-1.00;99.90;;;;;;4948099;28;20037;-63
2022/01/16 10:40:32;;;;;;;92.90;24.35;;;-1.00;99.90;;;;;;4950332;28;20031;-64
2022/01/16 10:42:58;;;;;;;90.50;25.08;;;-1.00;99.90;;;;;;4949561;28;20027;-64
2022/01/16 10:45:26;;;;;;;94.07;24.15;;;-1.00;99.90;;;;;;4948822;28;20031;-63
2022/01/16 10:48:02;;;;;;;90.03;24.55;;;-1.00;99.90;;;;;;4951091;28;20114;-64
2022/01/16 10:50:30;;;;;;;87.97;25.00;;;-1.00;99.90;;;;;;4950172;28;20146;-64
2022/01/16 10:53:07;;;;;;;94.38;26.42;;;-1.10;99.90;;;;;;4950664;28;20154;-62
2022/01/16 10:55:35;;;;;;;93.25;26.35;;;-1.10;99.90;;;;;;4950166;28;20142;-63
2022/01/16 10:58:12;;;;;;;93.82;25.55;;;-1.00;99.90;;;;;;4949799;28;20044;-63
2022/01/16 11:00:41;;;;;;;102.68;26.60;;;-1.00;99.90;;;;;;4948163;28;20067;-64
2022/01/16 11:03:11;;;;;;;101.47;27.08;;;-1.00;99.90;;;;;;4948682;28;20846;-63
2022/01/16 11:05:38;;;;;;;;;;;-1.00;99.90;;;;;;4949936;28;20035;-64
2022/01/16 11:08:14;;;;;;;91.07;25.67;;;-0.90;99.90;;;;;;4949334;28;19933;-64
2022/01/16 11:10:42;;;;;;;84.07;25.75;;;-0.90;99.90;;;;;;4950491;28;20023;-65
2022/01/16 11:13:14;;;;;;;93.85;26.33;;;-0.90;99.90;;;;;;4949689;28;20101;-64
2022/01/16 11:15:46;;;;;;;90.20;27.00;;;-0.80;99.90;;;;;;4949597;28;20035;-64
2022/01/16 11:18:18;;;;;;;90.22;27.27;;;-0.80;99.90;;;;;;4948735;28;20034;-64
2022/01/16 11:20:55;;;;;;;99.90;28.23;;;-0.70;99.90;;;;;;4944709;29;20023;-64
2022/01/16 11:26:03;;;;;;;100.90;28.83;;;-0.60;99.90;;;;;;4950173;28;20089;-63
2022/01/16 11:28:37;;;;;;;94.53;27.75;;;-0.60;99.90;;;;;;4949595;28;20484;-64
2022/01/16 11:31:05;;;;;;;102.65;28.15;;;-0.60;99.90;;;;;;4945449;28;20079;-64
2022/01/16 11:33:35;;;;;;;105.45;29.60;;;-0.40;99.90;;;;;;4947900;28;20027;-64
2022/01/16 11:36:13;;;;;;;94.35;28.67;;;-0.30;99.90;;;;;;4947862;28;20023;-63
2022/01/16 11:38:52;;;;;;;91.20;26.45;;;-0.20;99.90;;;;;;4942989;28;20090;-63
2022/01/16 11:41:32;;;;;;;94.15;25.23;;;-0.10;99.90;;;;;;4949150;28;20114;-64
2022/01/16 11:43:59;;;;;;;104.60;27.55;;;0.10;99.90;;;;;;4955302;28;20082;-64
2022/01/16 11:46:26;;;;;;;87.15;26.45;;;0.20;99.90;;;;;;4950640;28;20211;-66
2022/01/16 11:49:11;;;;;;;85.82;25.23;;;0.30;99.90;;;;;;4948875;29;20436;-66
2022/01/16 11:51:39;;;;;;;86.38;27.45;;;0.30;99.90;;;;;;4950036;28;20506;-66
2022/01/16 11:54:08;;;;;;;93.00;28.55;;;0.30;99.90;;;;;;4948917;28;20035;-66
2022/01/16 11:56:43;;;;;;;101.10;27.48;;;0.30;99.90;;;;;;4949763;28;20547;-66
2022/01/16 11:59:12;;;;;;;97.00;27.95;;;0.40;99.90;;;;;;4949242;28;20034;-65
2022/01/16 12:02:04;;;;;;;105.13;25.75;;;0.40;99.90;;;;;;4949573;28;20384;-64
2022/01/16 12:04:32;;;;;;;96.72;29.05;;;0.40;99.90;;;;;;4953406;28;20038;-66
2022/01/16 12:06:59;;;;;;;100.00;29.17;;;0.40;99.90;;;;;;4953095;28;20070;-64
2022/01/16 12:12:14;;;;;;;90.38;25.77;;;0.40;99.90;;;;;;4953150;28;20078;-66
2022/01/16 12:15:02;;;;;;;88.55;26.90;;;0.50;99.90;;;;;;4953843;28;20070;-66
2022/01/16 12:20:12;;;;;;;99.25;28.85;;;0.50;99.90;;;;;;4952461;28;20097;-64
2022/01/16 12:22:53;;;;;;;103.47;28.60;;;0.50;99.90;;;;;;4953388;28;20059;-65
2022/01/16 12:25:33;;;;;;;91.53;25.45;;;0.50;99.90;;;;;;4953060;29;20115;-65
2022/01/16 12:28:02;;;;;;;82.93;24.73;;;0.50;99.90;;;;;;4953578;28;20039;-65
2022/01/16 12:30:32;;;;;;;109.40;30.55;;;0.50;99.90;;;;;;4952265;29;20031;-65
2022/01/16 12:33:09;;;;;;;93.97;26.33;;;0.40;99.90;;;;;;4953376;28;20034;-65
2022/01/16 12:35:50;;;;;;;94.47;28.25;;;0.50;99.90;;;;;;4953166;28;20432;-65
2022/01/16 12:38:24;;;;;;;102.47;29.98;;;0.50;99.90;;;;;;4946690;28;20050;-65
2022/01/16 12:40:58;;;;;;;101.07;28.90;;;0.50;99.90;;;;;;4952980;28;20376;-66
2022/01/16 12:45:57;;;;;;;92.35;26.27;;;0.50;99.90;;;;;;4952928;28;20031;-66
2022/01/16 12:48:23;;;;;;;95.25;27.65;;;0.60;99.90;;;;;;4951991;28;20680;-65
2022/01/16 12:50:51;;;;;;;97.63;28.98;;;0.60;99.90;;;;;;4952651;28;20076;-66
2022/01/16 12:53:41;;;;;;;94.03;26.70;;;0.70;99.90;;;;;;4952302;28;20034;-66
2022/01/16 12:56:26;;;;;;;90.40;27.08;;;0.70;99.90;;;;;;4951845;28;20028;-65
2022/01/16 12:59:05;;;;;;;88.82;26.20;;;0.70;99.90;;;;;;4952932;28;20039;-66
2022/01/16 13:01:32;;;;;;;79.90;24.58;;;0.70;99.90;;;;;;4950656;28;20031;-64
2022/01/16 13:03:58;;;;;;;70.45;22.30;;;0.70;99.90;;;;;;4953142;28;20031;-66
2022/01/16 13:06:37;;;;;;;76.30;23.85;;;0.70;99.90;;;;;;4952430;28;20627;-64
2022/01/16 13:09:07;;;;;;;70.70;22.75;;;0.70;99.90;;;;;;4951986;28;20168;-66
2022/01/16 13:11:49;;;;;;;79.30;22.90;;;0.70;99.90;;;;;;4951567;29;20035;-66
2022/01/16 13:14:19;;;;;;;72.30;22.98;;;0.80;99.90;;;;;;4950412;28;20044;-65
2022/01/16 13:16:49;;;;;;;76.25;22.40;;;0.70;99.90;;;;;;4952998;28;20043;-66
2022/01/16 13:19:19;;;;;;;59.13;19.65;;;0.80;99.90;;;;;;4951537;28;20038;-65
2022/01/16 13:21:57;;;;;;;68.07;20.80;;;0.80;99.90;;;;;;4952126;28;20456;-66
2022/01/16 13:24:30;;;;;;;58.50;19.25;;;0.80;99.90;;;;;;4950661;29;20840;-66
2022/01/16 13:26:56;;;;;;;68.25;21.55;;;0.90;99.90;;;;;;4950907;28;20078;-64
2022/01/16 13:29:25;;;;;;;61.15;19.90;;;0.90;99.90;;;;;;4951582;28;20039;-64
2022/01/16 13:31:51;;;;;;;65.28;21.85;;;0.90;99.90;;;;;;4952694;28;20041;-65